sensor_id;sensor_type;location;lat;lon;timestamp;P1;durP1;ratioP1;P2;durP2;ratioP2
52738;SDS011;52466;40.122;18.318;2022-08-21T00:00:56;64.78;;;52.33;;
52738;SDS011;52466;40.122;18.318;2022-08-21T00:04:08;65.18;;;52.55;;
52738;SDS011;52466;40.122;18.318;2022-08-21T00:07:17;64.63;;;52.13;;
52738;SDS011;52466;40.122;18.318;2022-08-21T00:10:25;64.60;;;51.97;;
52738;SDS011;52466;40.122;18.318;2022-08-21T00:13:33;64.78;;;52.28;;
52738;SDS011;52466;40.122;18.318;2022-08-21T00:16:41;65.43;;;52.53;;
52738;SDS011;52466;40.122;18.318;2022-08-21T00:19:49;62.13;;;52.10;;
52738;SDS011;52466;40.122;18.318;2022-08-21T00:22:57;66.78;;;52.55;;
52738;SDS011;52466;40.122;18.318;2022-08-21T00:26:05;64.40;;;52.05;;
52738;SDS011;52466;40.122;18.318;2022-08-21T00:29:13;64.25;;;52.22;;
52738;SDS011;52466;40.122;18.318;2022-08-21T00:32:22;65.25;;;52.28;;
52738;SDS011;52466;40.122;18.318;2022-08-21T00:35:32;60.28;;;51.92;;
52738;SDS011;52466;40.122;18.318;2022-08-21T00:38:41;64.47;;;52.22;;
52738;SDS011;52466;40.122;18.318;2022-08-21T00:41:49;63.97;;;52.25;;
52738;SDS011;52466;40.122;18.318;2022-08-21T00:44:57;66.85;;;52.30;;
52738;SDS011;52466;40.122;18.318;2022-08-21T00:48:05;64.38;;;52.35;;
52738;SDS011;52466;40.122;18.318;2022-08-21T00:51:20;61.28;;;52.15;;
52738;SDS011;52466;40.122;18.318;2022-08-21T00:54:33;64.78;;;52.15;;
52738;SDS011;52466;40.122;18.318;2022-08-21T00:57:45;63.47;;;52.22;;
52738;SDS011;52466;40.122;18.318;2022-08-21T01:00:56;66.68;;;52.25;;
52738;SDS011;52466;40.122;18.318;2022-08-21T01:04:06;63.28;;;52.45;;
52738;SDS011;52466;40.122;18.318;2022-08-21T01:07:14;61.55;;;52.15;;
52738;SDS011;52466;40.122;18.318;2022-08-21T01:10:22;62.05;;;51.83;;
52738;SDS011;52466;40.122;18.318;2022-08-21T01:13:32;63.20;;;51.67;;
52738;SDS011;52466;40.122;18.318;2022-08-21T01:16:44;61.60;;;51.47;;
52738;SDS011;52466;40.122;18.318;2022-08-21T01:19:57;62.28;;;51.85;;
52738;SDS011;52466;40.122;18.318;2022-08-21T01:23:05;63.25;;;52.08;;
52738;SDS011;52466;40.122;18.318;2022-08-21T01:26:14;61.28;;;51.58;;
52738;SDS011;52466;40.122;18.318;2022-08-21T01:32:58;62.30;;;51.55;;
52738;SDS011;52466;40.122;18.318;2022-08-21T01:36:05;68.95;;;51.72;;
52738;SDS011;52466;40.122;18.318;2022-08-21T01:39:13;64.40;;;52.03;;
52738;SDS011;52466;40.122;18.318;2022-08-21T01:42:22;62.13;;;52.17;;
52738;SDS011;52466;40.122;18.318;2022-08-21T01:45:29;65.00;;;52.13;;
52738;SDS011;52466;40.122;18.318;2022-08-21T01:48:37;63.83;;;52.05;;
52738;SDS011;52466;40.122;18.318;2022-08-21T01:51:45;60.92;;;51.95;;
52738;SDS011;52466;40.122;18.318;2022-08-21T01:54:54;59.35;;;51.92;;
52738;SDS011;52466;40.122;18.318;2022-08-21T01:58:02;62.65;;;51.75;;
52738;SDS011;52466;40.122;18.318;2022-08-21T02:01:10;66.35;;;52.00;;
52738;SDS011;52466;40.122;18.318;2022-08-21T02:04:17;62.00;;;51.63;;
52738;SDS011;52466;40.122;18.318;2022-08-21T02:07:25;61.95;;;52.30;;
52738;SDS011;52466;40.122;18.318;2022-08-21T02:10:33;64.97;;;52.13;;
52738;SDS011;52466;40.122;18.318;2022-08-21T02:13:41;65.68;;;53.30;;
52738;SDS011;52466;40.122;18.318;2022-08-21T02:16:49;67.97;;;51.80;;
52738;SDS011;52466;40.122;18.318;2022-08-21T02:19:56;60.70;;;52.05;;
52738;SDS011;52466;40.122;18.318;2022-08-21T02:23:05;61.72;;;51.85;;
52738;SDS011;52466;40.122;18.318;2022-08-21T02:26:14;61.83;;;51.90;;
52738;SDS011;52466;40.122;18.318;2022-08-21T02:29:22;63.22;;;52.03;;
52738;SDS011;52466;40.122;18.318;2022-08-21T02:32:30;64.28;;;51.92;;
52738;SDS011;52466;40.122;18.318;2022-08-21T02:35:38;62.20;;;51.83;;
52738;SDS011;52466;40.122;18.318;2022-08-21T02:38:48;67.45;;;51.92;;
52738;SDS011;52466;40.122;18.318;2022-08-21T02:41:56;62.28;;;51.97;;
52738;SDS011;52466;40.122;18.318;2022-08-21T02:45:27;62.55;;;51.65;;
52738;SDS011;52466;40.122;18.318;2022-08-21T02:48:53;65.93;;;51.58;;
52738;SDS011;52466;40.122;18.318;2022-08-21T02:52:01;60.15;;;51.85;;
52738;SDS011;52466;40.122;18.318;2022-08-21T02:55:09;64.15;;;51.83;;
52738;SDS011;52466;40.122;18.318;2022-08-21T02:58:19;59.63;;;51.72;;
52738;SDS011;52466;40.122;18.318;2022-08-21T03:01:31;63.88;;;52.00;;
52738;SDS011;52466;40.122;18.318;2022-08-21T03:04:39;61.17;;;51.50;;
52738;SDS011;52466;40.122;18.318;2022-08-21T03:07:47;60.88;;;51.47;;
52738;SDS011;52466;40.122;18.318;2022-08-21T03:10:55;61.88;;;51.72;;
52738;SDS011;52466;40.122;18.318;2022-08-21T03:14:03;65.75;;;51.83;;
52738;SDS011;52466;40.122;18.318;2022-08-21T03:17:12;60.95;;;51.88;;
52738;SDS011;52466;40.122;18.318;2022-08-21T03:20:20;60.42;;;51.83;;
52738;SDS011;52466;40.122;18.318;2022-08-21T03:23:30;61.13;;;51.53;;
52738;SDS011;52466;40.122;18.318;2022-08-21T03:26:38;60.65;;;51.67;;
52738;SDS011;52466;40.122;18.318;2022-08-21T03:29:46;60.25;;;51.30;;
52738;SDS011;52466;40.122;18.318;2022-08-21T03:32:54;60.95;;;51.80;;
52738;SDS011;52466;40.122;18.318;2022-08-21T03:36:05;60.58;;;51.72;;
52738;SDS011;52466;40.122;18.318;2022-08-21T03:39:15;60.25;;;51.55;;
52738;SDS011;52466;40.122;18.318;2022-08-21T03:42:23;59.45;;;51.38;;
52738;SDS011;52466;40.122;18.318;2022-08-21T03:45:31;63.55;;;51.70;;
52738;SDS011;52466;40.122;18.318;2022-08-21T03:48:39;63.55;;;51.97;;
52738;SDS011;52466;40.122;18.318;2022-08-21T03:51:47;62.22;;;51.78;;
52738;SDS011;52466;40.122;18.318;2022-08-21T03:54:54;65.50;;;51.83;;
52738;SDS011;52466;40.122;18.318;2022-08-21T03:58:03;64.28;;;51.92;;
52738;SDS011;52466;40.122;18.318;2022-08-21T04:01:10;63.65;;;51.50;;
52738;SDS011;52466;40.122;18.318;2022-08-21T04:04:19;62.65;;;51.90;;
52738;SDS011;52466;40.122;18.318;2022-08-21T04:07:27;60.75;;;51.70;;
52738;SDS011;52466;40.122;18.318;2022-08-21T04:10:36;60.20;;;51.92;;
52738;SDS011;52466;40.122;18.318;2022-08-21T04:13:45;62.83;;;51.92;;
52738;SDS011;52466;40.122;18.318;2022-08-21T04:16:53;63.15;;;52.08;;
52738;SDS011;52466;40.122;18.318;2022-08-21T04:20:01;61.55;;;52.03;;
52738;SDS011;52466;40.122;18.318;2022-08-21T04:23:09;62.08;;;51.95;;
52738;SDS011;52466;40.122;18.318;2022-08-21T04:26:17;60.50;;;51.75;;
52738;SDS011;52466;40.122;18.318;2022-08-21T04:29:25;62.45;;;51.92;;
52738;SDS011;52466;40.122;18.318;2022-08-21T04:32:33;62.40;;;51.90;;
52738;SDS011;52466;40.122;18.318;2022-08-21T04:35:42;59.88;;;51.65;;
52738;SDS011;52466;40.122;18.318;2022-08-21T04:38:50;63.58;;;51.78;;
52738;SDS011;52466;40.122;18.318;2022-08-21T04:41:58;61.05;;;51.75;;
52738;SDS011;52466;40.122;18.318;2022-08-21T04:45:06;60.53;;;51.70;;
52738;SDS011;52466;40.122;18.318;2022-08-21T04:48:16;59.33;;;51.65;;
52738;SDS011;52466;40.122;18.318;2022-08-21T04:51:32;62.85;;;51.75;;
52738;SDS011;52466;40.122;18.318;2022-08-21T04:54:43;65.10;;;52.53;;
52738;SDS011;52466;40.122;18.318;2022-08-21T04:57:52;60.75;;;51.72;;
52738;SDS011;52466;40.122;18.318;2022-08-21T05:01:02;64.07;;;52.35;;
52738;SDS011;52466;40.122;18.318;2022-08-21T05:04:12;62.38;;;52.15;;
52738;SDS011;52466;40.122;18.318;2022-08-21T05:07:23;61.35;;;53.15;;
52738;SDS011;52466;40.122;18.318;2022-08-21T05:10:36;64.25;;;53.13;;
52738;SDS011;52466;40.122;18.318;2022-08-21T05:13:44;75.18;;;55.75;;
52738;SDS011;52466;40.122;18.318;2022-08-21T05:16:52;76.07;;;56.85;;
52738;SDS011;52466;40.122;18.318;2022-08-21T05:20:00;80.22;;;57.58;;
52738;SDS011;52466;40.122;18.318;2022-08-21T05:23:09;80.18;;;57.45;;
52738;SDS011;52466;40.122;18.318;2022-08-21T05:26:18;77.60;;;57.55;;
52738;SDS011;52466;40.122;18.318;2022-08-21T05:29:26;78.28;;;57.70;;
52738;SDS011;52466;40.122;18.318;2022-08-21T05:32:34;71.80;;;56.55;;
52738;SDS011;52466;40.122;18.318;2022-08-21T05:35:42;70.53;;;56.50;;
52738;SDS011;52466;40.122;18.318;2022-08-21T05:38:50;70.07;;;56.47;;
52738;SDS011;52466;40.122;18.318;2022-08-21T05:41:58;75.20;;;57.47;;
52738;SDS011;52466;40.122;18.318;2022-08-21T05:45:05;71.25;;;56.60;;
52738;SDS011;52466;40.122;18.318;2022-08-21T05:48:15;74.25;;;57.70;;
52738;SDS011;52466;40.122;18.318;2022-08-21T05:51:26;81.72;;;58.45;;
52738;SDS011;52466;40.122;18.318;2022-08-21T05:54:35;81.10;;;58.92;;
52738;SDS011;52466;40.122;18.318;2022-08-21T05:57:44;78.28;;;58.83;;
52738;SDS011;52466;40.122;18.318;2022-08-21T06:00:52;78.97;;;60.08;;
52738;SDS011;52466;40.122;18.318;2022-08-21T06:03:59;77.45;;;58.75;;
52738;SDS011;52466;40.122;18.318;2022-08-21T06:07:07;77.70;;;58.95;;
52738;SDS011;52466;40.122;18.318;2022-08-21T06:10:15;79.05;;;59.10;;
52738;SDS011;52466;40.122;18.318;2022-08-21T06:13:23;79.13;;;59.40;;
52738;SDS011;52466;40.122;18.318;2022-08-21T06:16:32;82.78;;;59.90;;
52738;SDS011;52466;40.122;18.318;2022-08-21T06:19:40;88.70;;;60.45;;
52738;SDS011;52466;40.122;18.318;2022-08-21T06:22:51;88.00;;;60.72;;
52738;SDS011;52466;40.122;18.318;2022-08-21T06:26:03;84.10;;;60.25;;
52738;SDS011;52466;40.122;18.318;2022-08-21T06:29:12;83.43;;;60.00;;
52738;SDS011;52466;40.122;18.318;2022-08-21T06:32:23;79.28;;;59.85;;
52738;SDS011;52466;40.122;18.318;2022-08-21T06:35:26;79.15;;;59.28;;
52738;SDS011;52466;40.122;18.318;2022-08-21T06:38:36;80.22;;;59.25;;
52738;SDS011;52466;40.122;18.318;2022-08-21T06:41:44;76.00;;;58.13;;
52738;SDS011;52466;40.122;18.318;2022-08-21T06:44:53;78.03;;;58.55;;
52738;SDS011;52466;40.122;18.318;2022-08-21T06:48:01;78.47;;;57.38;;
52738;SDS011;52466;40.122;18.318;2022-08-21T06:51:09;78.93;;;57.70;;
52738;SDS011;52466;40.122;18.318;2022-08-21T06:54:17;76.97;;;57.33;;
52738;SDS011;52466;40.122;18.318;2022-08-21T06:57:25;75.28;;;56.63;;
52738;SDS011;52466;40.122;18.318;2022-08-21T07:00:34;75.93;;;57.20;;
52738;SDS011;52466;40.122;18.318;2022-08-21T07:03:44;76.37;;;56.97;;
52738;SDS011;52466;40.122;18.318;2022-08-21T07:06:52;76.72;;;57.08;;
52738;SDS011;52466;40.122;18.318;2022-08-21T07:10:00;81.22;;;57.17;;
52738;SDS011;52466;40.122;18.318;2022-08-21T07:13:08;75.90;;;57.03;;
52738;SDS011;52466;40.122;18.318;2022-08-21T07:16:16;77.32;;;57.15;;
52738;SDS011;52466;40.122;18.318;2022-08-21T07:19:23;78.38;;;57.08;;
52738;SDS011;52466;40.122;18.318;2022-08-21T07:22:31;78.07;;;57.17;;
52738;SDS011;52466;40.122;18.318;2022-08-21T07:25:39;78.75;;;57.08;;
52738;SDS011;52466;40.122;18.318;2022-08-21T07:28:47;76.78;;;56.70;;
52738;SDS011;52466;40.122;18.318;2022-08-21T07:31:55;74.28;;;56.50;;
52738;SDS011;52466;40.122;18.318;2022-08-21T07:35:03;75.70;;;56.58;;
52738;SDS011;52466;40.122;18.318;2022-08-21T07:38:11;72.28;;;55.97;;
52738;SDS011;52466;40.122;18.318;2022-08-21T07:41:23;73.95;;;56.60;;
52738;SDS011;52466;40.122;18.318;2022-08-21T07:44:33;74.50;;;56.03;;
52738;SDS011;52466;40.122;18.318;2022-08-21T07:47:41;73.10;;;55.13;;
52738;SDS011;52466;40.122;18.318;2022-08-21T07:50:49;68.30;;;55.70;;
52738;SDS011;52466;40.122;18.318;2022-08-21T07:53:58;69.00;;;55.78;;
52738;SDS011;52466;40.122;18.318;2022-08-21T07:57:01;70.40;;;55.97;;
52738;SDS011;52466;40.122;18.318;2022-08-21T08:00:13;71.25;;;55.92;;
52738;SDS011;52466;40.122;18.318;2022-08-21T08:03:23;71.55;;;55.28;;
52738;SDS011;52466;40.122;18.318;2022-08-21T08:06:31;69.28;;;55.17;;
52738;SDS011;52466;40.122;18.318;2022-08-21T08:09:39;68.22;;;55.38;;
52738;SDS011;52466;40.122;18.318;2022-08-21T08:12:47;67.22;;;55.75;;
52738;SDS011;52466;40.122;18.318;2022-08-21T08:15:55;66.63;;;55.35;;
52738;SDS011;52466;40.122;18.318;2022-08-21T08:19:03;66.28;;;55.22;;
52738;SDS011;52466;40.122;18.318;2022-08-21T08:22:15;67.85;;;55.05;;
52738;SDS011;52466;40.122;18.318;2022-08-21T08:25:24;71.85;;;55.35;;
52738;SDS011;52466;40.122;18.318;2022-08-21T08:28:33;66.93;;;55.05;;
52738;SDS011;52466;40.122;18.318;2022-08-21T08:31:41;66.15;;;55.15;;
52738;SDS011;52466;40.122;18.318;2022-08-21T08:34:48;70.93;;;55.08;;
52738;SDS011;52466;40.122;18.318;2022-08-21T08:37:58;70.63;;;55.63;;
52738;SDS011;52466;40.122;18.318;2022-08-21T08:41:16;71.25;;;55.08;;
52738;SDS011;52466;40.122;18.318;2022-08-21T08:44:26;69.85;;;55.30;;
52738;SDS011;52466;40.122;18.318;2022-08-21T08:47:35;69.50;;;55.08;;
52738;SDS011;52466;40.122;18.318;2022-08-21T08:50:49;68.82;;;55.25;;
52738;SDS011;52466;40.122;18.318;2022-08-21T08:54:02;68.97;;;55.45;;
52738;SDS011;52466;40.122;18.318;2022-08-21T08:57:19;67.57;;;54.75;;
52738;SDS011;52466;40.122;18.318;2022-08-21T09:00:30;71.28;;;55.60;;
52738;SDS011;52466;40.122;18.318;2022-08-21T09:03:38;69.10;;;55.10;;
52738;SDS011;52466;40.122;18.318;2022-08-21T09:06:56;68.70;;;54.97;;
52738;SDS011;52466;40.122;18.318;2022-08-21T09:10:22;68.72;;;55.10;;
52738;SDS011;52466;40.122;18.318;2022-08-21T09:13:52;68.13;;;54.78;;
52738;SDS011;52466;40.122;18.318;2022-08-21T09:17:17;73.97;;;55.67;;
52738;SDS011;52466;40.122;18.318;2022-08-21T09:20:32;71.43;;;55.47;;
52738;SDS011;52466;40.122;18.318;2022-08-21T09:30:23;71.40;;;55.35;;
52738;SDS011;52466;40.122;18.318;2022-08-21T09:33:36;67.55;;;54.95;;
52738;SDS011;52466;40.122;18.318;2022-08-21T09:36:47;69.18;;;54.60;;
52738;SDS011;52466;40.122;18.318;2022-08-21T09:39:57;67.35;;;54.85;;
52738;SDS011;52466;40.122;18.318;2022-08-21T09:43:10;67.20;;;54.97;;
52738;SDS011;52466;40.122;18.318;2022-08-21T09:46:24;71.85;;;54.88;;
52738;SDS011;52466;40.122;18.318;2022-08-21T09:49:35;70.95;;;55.50;;
52738;SDS011;52466;40.122;18.318;2022-08-21T09:52:52;74.68;;;55.05;;
52738;SDS011;52466;40.122;18.318;2022-08-21T09:56:14;69.63;;;55.15;;
52738;SDS011;52466;40.122;18.318;2022-08-21T10:00:07;68.68;;;54.42;;
52738;SDS011;52466;40.122;18.318;2022-08-21T10:03:27;69.03;;;54.95;;
52738;SDS011;52466;40.122;18.318;2022-08-21T10:06:35;67.65;;;54.80;;
52738;SDS011;52466;40.122;18.318;2022-08-21T10:09:43;68.22;;;55.70;;
52738;SDS011;52466;40.122;18.318;2022-08-21T10:23:39;70.55;;;55.10;;
52738;SDS011;52466;40.122;18.318;2022-08-21T10:27:01;68.00;;;55.08;;
52738;SDS011;52466;40.122;18.318;2022-08-21T10:30:39;67.18;;;54.65;;
52738;SDS011;52466;40.122;18.318;2022-08-21T10:41:12;68.50;;;54.30;;
52738;SDS011;52466;40.122;18.318;2022-08-21T10:51:01;66.72;;;54.97;;
52738;SDS011;52466;40.122;18.318;2022-08-21T10:57:51;67.80;;;54.55;;
52738;SDS011;52466;40.122;18.318;2022-08-21T11:01:12;66.22;;;54.33;;
52738;SDS011;52466;40.122;18.318;2022-08-21T11:10:53;71.10;;;54.58;;
52738;SDS011;52466;40.122;18.318;2022-08-21T11:14:11;64.15;;;54.10;;
52738;SDS011;52466;40.122;18.318;2022-08-21T11:17:45;64.78;;;54.47;;
52738;SDS011;52466;40.122;18.318;2022-08-21T11:28:33;66.63;;;54.55;;
52738;SDS011;52466;40.122;18.318;2022-08-21T11:38:46;69.70;;;55.00;;
52738;SDS011;52466;40.122;18.318;2022-08-21T11:52:43;64.18;;;54.40;;
52738;SDS011;52466;40.122;18.318;2022-08-21T11:55:56;68.18;;;54.78;;
52738;SDS011;52466;40.122;18.318;2022-08-21T11:59:17;63.83;;;54.33;;
52738;SDS011;52466;40.122;18.318;2022-08-21T12:02:38;67.70;;;54.30;;
52738;SDS011;52466;40.122;18.318;2022-08-21T12:05:53;65.32;;;53.70;;
52738;SDS011;52466;40.122;18.318;2022-08-21T12:12:37;64.15;;;53.78;;
52738;SDS011;52466;40.122;18.318;2022-08-21T12:15:46;65.90;;;54.10;;
52738;SDS011;52466;40.122;18.318;2022-08-21T12:19:10;65.15;;;54.58;;
52738;SDS011;52466;40.122;18.318;2022-08-21T12:22:20;68.10;;;54.20;;
52738;SDS011;52466;40.122;18.318;2022-08-21T12:25:35;66.03;;;54.20;;
52738;SDS011;52466;40.122;18.318;2022-08-21T12:29:11;63.03;;;54.17;;
52738;SDS011;52466;40.122;18.318;2022-08-21T12:32:42;69.47;;;54.80;;
52738;SDS011;52466;40.122;18.318;2022-08-21T12:35:53;64.85;;;53.78;;
52738;SDS011;52466;40.122;18.318;2022-08-21T12:39:17;65.18;;;53.88;;
52738;SDS011;52466;40.122;18.318;2022-08-21T12:42:49;64.65;;;54.00;;
52738;SDS011;52466;40.122;18.318;2022-08-21T12:45:59;65.85;;;53.88;;
52738;SDS011;52466;40.122;18.318;2022-08-21T12:49:14;63.38;;;53.90;;
52738;SDS011;52466;40.122;18.318;2022-08-21T12:52:30;66.53;;;54.15;;
52738;SDS011;52466;40.122;18.318;2022-08-21T12:55:42;69.72;;;54.13;;
52738;SDS011;52466;40.122;18.318;2022-08-21T12:58:54;65.85;;;54.13;;
52738;SDS011;52466;40.122;18.318;2022-08-21T13:02:16;64.25;;;53.97;;
52738;SDS011;52466;40.122;18.318;2022-08-21T13:05:29;65.03;;;54.00;;
52738;SDS011;52466;40.122;18.318;2022-08-21T13:08:38;65.22;;;53.92;;
52738;SDS011;52466;40.122;18.318;2022-08-21T13:11:47;64.30;;;53.78;;
52738;SDS011;52466;40.122;18.318;2022-08-21T13:14:57;63.88;;;54.05;;
52738;SDS011;52466;40.122;18.318;2022-08-21T13:18:08;65.97;;;54.40;;
52738;SDS011;52466;40.122;18.318;2022-08-21T13:21:30;65.43;;;53.95;;
52738;SDS011;52466;40.122;18.318;2022-08-21T13:24:47;66.07;;;54.00;;
52738;SDS011;52466;40.122;18.318;2022-08-21T13:28:06;62.65;;;53.75;;
52738;SDS011;52466;40.122;18.318;2022-08-21T13:31:17;63.60;;;53.63;;
52738;SDS011;52466;40.122;18.318;2022-08-21T13:34:30;63.40;;;53.95;;
52738;SDS011;52466;40.122;18.318;2022-08-21T13:37:42;66.70;;;53.70;;
52738;SDS011;52466;40.122;18.318;2022-08-21T13:40:53;63.67;;;53.90;;
52738;SDS011;52466;40.122;18.318;2022-08-21T13:44:05;67.47;;;53.93;;
52738;SDS011;52466;40.122;18.318;2022-08-21T13:47:26;63.00;;;53.95;;
52738;SDS011;52466;40.122;18.318;2022-08-21T13:50:35;61.42;;;53.58;;
52738;SDS011;52466;40.122;18.318;2022-08-21T13:53:47;61.78;;;53.53;;
52738;SDS011;52466;40.122;18.318;2022-08-21T13:56:59;62.47;;;53.60;;
52738;SDS011;52466;40.122;18.318;2022-08-21T14:03:38;61.35;;;53.08;;
52738;SDS011;52466;40.122;18.318;2022-08-21T14:06:50;59.85;;;53.25;;
52738;SDS011;52466;40.122;18.318;2022-08-21T14:10:05;66.13;;;53.30;;
52738;SDS011;52466;40.122;18.318;2022-08-21T14:16:59;64.85;;;53.47;;
52738;SDS011;52466;40.122;18.318;2022-08-21T14:20:25;62.05;;;53.58;;
52738;SDS011;52466;40.122;18.318;2022-08-21T14:23:36;62.55;;;53.50;;
52738;SDS011;52466;40.122;18.318;2022-08-21T14:26:51;62.22;;;53.55;;
52738;SDS011;52466;40.122;18.318;2022-08-21T14:30:02;60.90;;;53.35;;
52738;SDS011;52466;40.122;18.318;2022-08-21T14:33:20;63.10;;;53.40;;
52738;SDS011;52466;40.122;18.318;2022-08-21T14:36:33;63.92;;;53.33;;
52738;SDS011;52466;40.122;18.318;2022-08-21T14:39:41;62.50;;;53.60;;
52738;SDS011;52466;40.122;18.318;2022-08-21T14:42:48;63.53;;;53.17;;
52738;SDS011;52466;40.122;18.318;2022-08-21T14:45:56;66.15;;;53.53;;
52738;SDS011;52466;40.122;18.318;2022-08-21T14:49:04;62.90;;;53.28;;
52738;SDS011;52466;40.122;18.318;2022-08-21T14:52:12;62.92;;;53.13;;
52738;SDS011;52466;40.122;18.318;2022-08-21T14:55:19;62.00;;;53.47;;
52738;SDS011;52466;40.122;18.318;2022-08-21T14:58:27;63.35;;;53.45;;
52738;SDS011;52466;40.122;18.318;2022-08-21T15:01:36;65.13;;;53.58;;
52738;SDS011;52466;40.122;18.318;2022-08-21T15:04:45;60.75;;;53.03;;
52738;SDS011;52466;40.122;18.318;2022-08-21T15:07:53;65.13;;;53.33;;
52738;SDS011;52466;40.122;18.318;2022-08-21T15:11:01;63.15;;;53.60;;
52738;SDS011;52466;40.122;18.318;2022-08-21T15:14:12;63.22;;;53.17;;
52738;SDS011;52466;40.122;18.318;2022-08-21T15:17:27;64.32;;;53.15;;
52738;SDS011;52466;40.122;18.318;2022-08-21T15:20:35;61.55;;;53.08;;
52738;SDS011;52466;40.122;18.318;2022-08-21T15:23:43;62.80;;;53.22;;
52738;SDS011;52466;40.122;18.318;2022-08-21T15:26:51;60.15;;;52.90;;
52738;SDS011;52466;40.122;18.318;2022-08-21T15:30:01;61.17;;;52.97;;
52738;SDS011;52466;40.122;18.318;2022-08-21T15:33:10;59.92;;;52.58;;
52738;SDS011;52466;40.122;18.318;2022-08-21T15:36:18;64.43;;;52.95;;
52738;SDS011;52466;40.122;18.318;2022-08-21T15:39:27;64.93;;;53.25;;
52738;SDS011;52466;40.122;18.318;2022-08-21T15:42:35;61.70;;;53.38;;
52738;SDS011;52466;40.122;18.318;2022-08-21T15:45:44;61.35;;;52.78;;
52738;SDS011;52466;40.122;18.318;2022-08-21T15:48:52;60.20;;;53.03;;
52738;SDS011;52466;40.122;18.318;2022-08-21T15:52:00;61.67;;;53.28;;
52738;SDS011;52466;40.122;18.318;2022-08-21T15:55:08;63.53;;;53.20;;
52738;SDS011;52466;40.122;18.318;2022-08-21T15:58:17;62.60;;;53.25;;
52738;SDS011;52466;40.122;18.318;2022-08-21T16:01:27;64.60;;;53.35;;
52738;SDS011;52466;40.122;18.318;2022-08-21T16:04:35;60.25;;;53.05;;
52738;SDS011;52466;40.122;18.318;2022-08-21T16:07:43;60.15;;;52.92;;
52738;SDS011;52466;40.122;18.318;2022-08-21T16:28:01;61.60;;;53.15;;
52738;SDS011;52466;40.122;18.318;2022-08-21T16:31:07;68.07;;;54.08;;
52738;SDS011;52466;40.122;18.318;2022-08-21T16:34:17;67.55;;;53.80;;
52738;SDS011;52466;40.122;18.318;2022-08-21T16:37:26;66.32;;;53.33;;
52738;SDS011;52466;40.122;18.318;2022-08-21T16:40:34;63.17;;;53.80;;
52738;SDS011;52466;40.122;18.318;2022-08-21T16:43:43;65.25;;;53.92;;
52738;SDS011;52466;40.122;18.318;2022-08-21T16:46:51;64.22;;;53.72;;
52738;SDS011;52466;40.122;18.318;2022-08-21T16:50:00;60.75;;;53.17;;
52738;SDS011;52466;40.122;18.318;2022-08-21T16:53:08;63.40;;;53.42;;
52738;SDS011;52466;40.122;18.318;2022-08-21T16:59:20;64.88;;;53.30;;
52738;SDS011;52466;40.122;18.318;2022-08-21T17:02:32;63.15;;;53.47;;
52738;SDS011;52466;40.122;18.318;2022-08-21T17:05:43;64.80;;;53.38;;
52738;SDS011;52466;40.122;18.318;2022-08-21T17:08:51;61.58;;;52.88;;
52738;SDS011;52466;40.122;18.318;2022-08-21T17:11:59;65.88;;;53.45;;
52738;SDS011;52466;40.122;18.318;2022-08-21T17:15:11;60.22;;;52.83;;
52738;SDS011;52466;40.122;18.318;2022-08-21T17:18:25;63.30;;;53.22;;
52738;SDS011;52466;40.122;18.318;2022-08-21T17:21:33;64.22;;;53.42;;
52738;SDS011;52466;40.122;18.318;2022-08-21T17:24:40;70.28;;;53.50;;
52738;SDS011;52466;40.122;18.318;2022-08-21T17:27:48;62.53;;;52.85;;
52738;SDS011;52466;40.122;18.318;2022-08-21T17:30:57;66.80;;;53.70;;
52738;SDS011;52466;40.122;18.318;2022-08-21T17:34:07;62.83;;;53.35;;
52738;SDS011;52466;40.122;18.318;2022-08-21T17:37:17;65.80;;;53.22;;
52738;SDS011;52466;40.122;18.318;2022-08-21T17:40:26;63.45;;;53.58;;
52738;SDS011;52466;40.122;18.318;2022-08-21T17:43:36;75.40;;;57.78;;
52738;SDS011;52466;40.122;18.318;2022-08-21T17:46:46;66.55;;;53.40;;
52738;SDS011;52466;40.122;18.318;2022-08-21T17:49:54;62.55;;;53.63;;
52738;SDS011;52466;40.122;18.318;2022-08-21T17:53:02;71.38;;;54.55;;
52738;SDS011;52466;40.122;18.318;2022-08-21T17:56:11;65.10;;;52.78;;
52738;SDS011;52466;40.122;18.318;2022-08-21T17:59:21;64.05;;;52.92;;
52738;SDS011;52466;40.122;18.318;2022-08-21T18:02:30;63.67;;;52.90;;
52738;SDS011;52466;40.122;18.318;2022-08-21T18:05:38;61.75;;;52.33;;
52738;SDS011;52466;40.122;18.318;2022-08-21T18:08:45;60.78;;;51.95;;
52738;SDS011;52466;40.122;18.318;2022-08-21T18:11:54;64.03;;;52.65;;
52738;SDS011;52466;40.122;18.318;2022-08-21T18:15:03;63.38;;;52.15;;
52738;SDS011;52466;40.122;18.318;2022-08-21T18:18:11;63.03;;;52.78;;
52738;SDS011;52466;40.122;18.318;2022-08-21T18:21:19;69.82;;;52.88;;
52738;SDS011;52466;40.122;18.318;2022-08-21T18:24:27;67.35;;;52.53;;
52738;SDS011;52466;40.122;18.318;2022-08-21T18:27:34;63.78;;;53.28;;
52738;SDS011;52466;40.122;18.318;2022-08-21T18:30:43;62.67;;;52.58;;
52738;SDS011;52466;40.122;18.318;2022-08-21T18:33:50;64.85;;;52.45;;
52738;SDS011;52466;40.122;18.318;2022-08-21T18:37:00;64.10;;;52.80;;
52738;SDS011;52466;40.122;18.318;2022-08-21T18:40:08;62.80;;;52.72;;
52738;SDS011;52466;40.122;18.318;2022-08-21T18:43:17;62.38;;;52.58;;
52738;SDS011;52466;40.122;18.318;2022-08-21T18:46:25;65.35;;;52.35;;
52738;SDS011;52466;40.122;18.318;2022-08-21T18:49:33;63.08;;;52.58;;
52738;SDS011;52466;40.122;18.318;2022-08-21T18:52:41;64.13;;;52.45;;
52738;SDS011;52466;40.122;18.318;2022-08-21T18:55:49;62.17;;;52.67;;
52738;SDS011;52466;40.122;18.318;2022-08-21T18:58:57;65.03;;;52.58;;
52738;SDS011;52466;40.122;18.318;2022-08-21T19:02:04;65.72;;;53.28;;
52738;SDS011;52466;40.122;18.318;2022-08-21T19:05:14;63.60;;;52.35;;
52738;SDS011;52466;40.122;18.318;2022-08-21T19:08:23;62.60;;;52.35;;
52738;SDS011;52466;40.122;18.318;2022-08-21T19:11:35;64.55;;;52.25;;
52738;SDS011;52466;40.122;18.318;2022-08-21T19:14:45;66.72;;;52.05;;
52738;SDS011;52466;40.122;18.318;2022-08-21T19:17:52;58.70;;;51.95;;
52738;SDS011;52466;40.122;18.318;2022-08-21T19:21:00;63.63;;;52.78;;
52738;SDS011;52466;40.122;18.318;2022-08-21T19:24:09;63.45;;;52.25;;
52738;SDS011;52466;40.122;18.318;2022-08-21T19:27:16;64.95;;;52.97;;
52738;SDS011;52466;40.122;18.318;2022-08-21T19:30:25;63.55;;;52.55;;
52738;SDS011;52466;40.122;18.318;2022-08-21T19:33:35;59.10;;;52.00;;
52738;SDS011;52466;40.122;18.318;2022-08-21T19:36:44;60.17;;;52.17;;
52738;SDS011;52466;40.122;18.318;2022-08-21T19:39:52;63.50;;;51.83;;
52738;SDS011;52466;40.122;18.318;2022-08-21T19:43:00;64.72;;;52.30;;
52738;SDS011;52466;40.122;18.318;2022-08-21T19:46:08;62.90;;;52.22;;
52738;SDS011;52466;40.122;18.318;2022-08-21T19:49:17;63.10;;;51.95;;
52738;SDS011;52466;40.122;18.318;2022-08-21T19:52:28;62.55;;;52.30;;
52738;SDS011;52466;40.122;18.318;2022-08-21T19:55:41;60.58;;;52.25;;
52738;SDS011;52466;40.122;18.318;2022-08-21T19:58:50;58.83;;;51.78;;